sensor_id;sensor_type;location;lat;lon;timestamp;temperature;humidity
15690;DHT22;7945;48.816;11.506;2023-05-23T00:00:00;21.10;91.80
15690;DHT22;7945;48.816;11.506;2023-05-23T00:02:27;21.10;91.90
15690;DHT22;7945;48.816;11.506;2023-05-23T00:04:54;21.10;92.00
15690;DHT22;7945;48.816;11.506;2023-05-23T00:07:24;21.00;92.10
15690;DHT22;7945;48.816;11.506;2023-05-23T00:09:51;21.00;92.30
15690;DHT22;7945;48.816;11.506;2023-05-23T00:12:18;20.90;92.70
15690;DHT22;7945;48.816;11.506;2023-05-23T00:14:45;20.90;92.50
15690;DHT22;7945;48.816;11.506;2023-05-23T00:17:12;20.90;92.50
15690;DHT22;7945;48.816;11.506;2023-05-23T00:19:38;20.90;92.70
15690;DHT22;7945;48.816;11.506;2023-05-23T00:22:05;20.80;92.80
15690;DHT22;7945;48.816;11.506;2023-05-23T00:24:33;20.80;93.00
15690;DHT22;7945;48.816;11.506;2023-05-23T00:27:00;20.70;93.10
15690;DHT22;7945;48.816;11.506;2023-05-23T00:29:27;20.60;93.20
15690;DHT22;7945;48.816;11.506;2023-05-23T00:31:53;20.60;93.30
15690;DHT22;7945;48.816;11.506;2023-05-23T00:34:20;20.50;93.40
15690;DHT22;7945;48.816;11.506;2023-05-23T00:36:47;20.50;93.50
15690;DHT22;7945;48.816;11.506;2023-05-23T00:39:15;20.50;93.60
15690;DHT22;7945;48.816;11.506;2023-05-23T00:41:46;20.50;93.70
15690;DHT22;7945;48.816;11.506;2023-05-23T00:44:13;20.50;93.70
15690;DHT22;7945;48.816;11.506;2023-05-23T00:46:42;20.40;93.70
15690;DHT22;7945;48.816;11.506;2023-05-23T00:49:11;20.40;93.80
15690;DHT22;7945;48.816;11.506;2023-05-23T00:51:38;20.40;93.80
15690;DHT22;7945;48.816;11.506;2023-05-23T00:54:06;20.30;94.00
15690;DHT22;7945;48.816;11.506;2023-05-23T00:56:33;20.20;94.10
15690;DHT22;7945;48.816;11.506;2023-05-23T00:59:02;20.10;94.10
15690;DHT22;7945;48.816;11.506;2023-05-23T01:01:29;20.20;94.20
15690;DHT22;7945;48.816;11.506;2023-05-23T01:03:56;20.20;94.20
15690;DHT22;7945;48.816;11.506;2023-05-23T01:06:23;20.10;94.20
15690;DHT22;7945;48.816;11.506;2023-05-23T01:08:50;20.20;94.20
15690;DHT22;7945;48.816;11.506;2023-05-23T01:11:25;20.20;94.30
15690;DHT22;7945;48.816;11.506;2023-05-23T01:13:58;20.10;94.40
15690;DHT22;7945;48.816;11.506;2023-05-23T01:16:34;20.10;94.50
15690;DHT22;7945;48.816;11.506;2023-05-23T01:19:13;20.00;94.60
15690;DHT22;7945;48.816;11.506;2023-05-23T01:21:44;20.00;94.70
15690;DHT22;7945;48.816;11.506;2023-05-23T01:24:35;19.90;94.70
15690;DHT22;7945;48.816;11.506;2023-05-23T01:27:08;19.90;95.00
15690;DHT22;7945;48.816;11.506;2023-05-23T01:29:44;19.90;94.80
15690;DHT22;7945;48.816;11.506;2023-05-23T01:32:12;19.90;94.90
15690;DHT22;7945;48.816;11.506;2023-05-23T01:34:40;19.90;94.90
15690;DHT22;7945;48.816;11.506;2023-05-23T01:37:08;19.90;95.00
15690;DHT22;7945;48.816;11.506;2023-05-23T01:39:36;19.90;95.00
15690;DHT22;7945;48.816;11.506;2023-05-23T01:42:03;19.80;95.00
15690;DHT22;7945;48.816;11.506;2023-05-23T01:44:31;19.80;95.10
15690;DHT22;7945;48.816;11.506;2023-05-23T01:47:02;19.80;95.10
15690;DHT22;7945;48.816;11.506;2023-05-23T01:49:29;19.80;95.20
15690;DHT22;7945;48.816;11.506;2023-05-23T01:51:57;19.70;95.30
15690;DHT22;7945;48.816;11.506;2023-05-23T01:54:25;19.70;95.40
15690;DHT22;7945;48.816;11.506;2023-05-23T01:56:54;19.70;95.40
15690;DHT22;7945;48.816;11.506;2023-05-23T01:59:21;19.70;95.50
15690;DHT22;7945;48.816;11.506;2023-05-23T02:01:48;19.70;95.50
15690;DHT22;7945;48.816;11.506;2023-05-23T02:04:17;19.70;95.90
15690;DHT22;7945;48.816;11.506;2023-05-23T02:06:44;19.70;95.60
15690;DHT22;7945;48.816;11.506;2023-05-23T02:09:11;19.70;95.60
15690;DHT22;7945;48.816;11.506;2023-05-23T02:11:37;19.60;95.60
15690;DHT22;7945;48.816;11.506;2023-05-23T02:14:04;19.70;95.70
15690;DHT22;7945;48.816;11.506;2023-05-23T02:16:31;19.70;95.70
15690;DHT22;7945;48.816;11.506;2023-05-23T02:19:00;19.70;95.70
15690;DHT22;7945;48.816;11.506;2023-05-23T02:21:29;19.70;95.80
15690;DHT22;7945;48.816;11.506;2023-05-23T02:23:56;19.70;96.10
15690;DHT22;7945;48.816;11.506;2023-05-23T02:26:23;19.70;95.90
15690;DHT22;7945;48.816;11.506;2023-05-23T02:28:52;19.70;95.90
15690;DHT22;7945;48.816;11.506;2023-05-23T02:31:18;19.60;96.00
15690;DHT22;7945;48.816;11.506;2023-05-23T02:33:45;19.70;96.10
15690;DHT22;7945;48.816;11.506;2023-05-23T02:36:12;19.70;96.10
15690;DHT22;7945;48.816;11.506;2023-05-23T02:38:41;19.70;96.20
15690;DHT22;7945;48.816;11.506;2023-05-23T02:41:07;19.70;96.20
15690;DHT22;7945;48.816;11.506;2023-05-23T02:43:34;19.70;96.30
15690;DHT22;7945;48.816;11.506;2023-05-23T02:46:01;19.60;96.30
15690;DHT22;7945;48.816;11.506;2023-05-23T02:48:28;19.60;96.40
15690;DHT22;7945;48.816;11.506;2023-05-23T02:50:54;19.60;96.50
15690;DHT22;7945;48.816;11.506;2023-05-23T02:53:21;19.50;96.50
15690;DHT22;7945;48.816;11.506;2023-05-23T02:55:49;19.50;96.60
15690;DHT22;7945;48.816;11.506;2023-05-23T02:58:16;19.50;96.60
15690;DHT22;7945;48.816;11.506;2023-05-23T03:00:43;19.50;96.70
15690;DHT22;7945;48.816;11.506;2023-05-23T03:03:10;19.50;96.70
15690;DHT22;7945;48.816;11.506;2023-05-23T03:05:37;19.50;96.70
15690;DHT22;7945;48.816;11.506;2023-05-23T03:08:03;19.50;96.80
15690;DHT22;7945;48.816;11.506;2023-05-23T03:10:31;19.60;96.90
15690;DHT22;7945;48.816;11.506;2023-05-23T03:12:59;19.70;96.70
15690;DHT22;7945;48.816;11.506;2023-05-23T03:15:25;19.70;96.60
15690;DHT22;7945;48.816;11.506;2023-05-23T03:17:52;19.70;96.70
15690;DHT22;7945;48.816;11.506;2023-05-23T03:20:19;19.60;96.70
15690;DHT22;7945;48.816;11.506;2023-05-23T03:22:46;19.60;96.90
15690;DHT22;7945;48.816;11.506;2023-05-23T03:25:14;19.50;97.00
15690;DHT22;7945;48.816;11.506;2023-05-23T03:27:40;19.40;97.00
15690;DHT22;7945;48.816;11.506;2023-05-23T03:30:10;19.40;97.10
15690;DHT22;7945;48.816;11.506;2023-05-23T03:32:36;19.40;97.20
15690;DHT22;7945;48.816;11.506;2023-05-23T03:35:04;19.30;97.20
15690;DHT22;7945;48.816;11.506;2023-05-23T03:37:30;19.30;97.30
15690;DHT22;7945;48.816;11.506;2023-05-23T03:39:57;19.30;97.40
15690;DHT22;7945;48.816;11.506;2023-05-23T03:42:24;19.20;97.50
15690;DHT22;7945;48.816;11.506;2023-05-23T03:44:51;19.20;97.60
15690;DHT22;7945;48.816;11.506;2023-05-23T03:47:19;19.20;97.60
15690;DHT22;7945;48.816;11.506;2023-05-23T03:49:46;19.20;97.70
15690;DHT22;7945;48.816;11.506;2023-05-23T03:52:12;19.20;97.80
15690;DHT22;7945;48.816;11.506;2023-05-23T03:54:39;19.20;97.90
15690;DHT22;7945;48.816;11.506;2023-05-23T03:57:06;19.00;98.00
15690;DHT22;7945;48.816;11.506;2023-05-23T03:59:33;19.00;98.10
15690;DHT22;7945;48.816;11.506;2023-05-23T04:02:00;19.00;98.10
15690;DHT22;7945;48.816;11.506;2023-05-23T04:04:28;19.00;98.20
15690;DHT22;7945;48.816;11.506;2023-05-23T04:06:55;19.00;98.30
15690;DHT22;7945;48.816;11.506;2023-05-23T04:09:22;19.00;98.30
15690;DHT22;7945;48.816;11.506;2023-05-23T04:11:50;19.00;98.30
15690;DHT22;7945;48.816;11.506;2023-05-23T04:14:16;19.10;98.30
15690;DHT22;7945;48.816;11.506;2023-05-23T04:16:44;19.10;98.30
15690;DHT22;7945;48.816;11.506;2023-05-23T04:19:12;19.20;98.30
15690;DHT22;7945;48.816;11.506;2023-05-23T04:21:40;19.20;98.40
15690;DHT22;7945;48.816;11.506;2023-05-23T04:24:07;19.30;98.40
15690;DHT22;7945;48.816;11.506;2023-05-23T04:26:34;19.50;98.20
15690;DHT22;7945;48.816;11.506;2023-05-23T04:29:01;19.70;97.90
15690;DHT22;7945;48.816;11.506;2023-05-23T04:31:28;19.90;97.80
15690;DHT22;7945;48.816;11.506;2023-05-23T04:33:55;20.00;97.60
15690;DHT22;7945;48.816;11.506;2023-05-23T04:36:22;20.10;97.50
15690;DHT22;7945;48.816;11.506;2023-05-23T04:38:51;20.10;97.50
15690;DHT22;7945;48.816;11.506;2023-05-23T04:41:18;20.10;97.40
15690;DHT22;7945;48.816;11.506;2023-05-23T04:43:47;20.30;97.30
15690;DHT22;7945;48.816;11.506;2023-05-23T04:46:19;20.40;97.10
15690;DHT22;7945;48.816;11.506;2023-05-23T04:48:50;20.40;97.10
15690;DHT22;7945;48.816;11.506;2023-05-23T04:51:17;20.50;97.00
15690;DHT22;7945;48.816;11.506;2023-05-23T04:53:46;20.70;96.80
15690;DHT22;7945;48.816;11.506;2023-05-23T04:56:14;21.00;96.60
15690;DHT22;7945;48.816;11.506;2023-05-23T04:58:42;21.00;96.60
15690;DHT22;7945;48.816;11.506;2023-05-23T05:01:10;21.40;96.20
15690;DHT22;7945;48.816;11.506;2023-05-23T05:03:37;22.00;95.50
15690;DHT22;7945;48.816;11.506;2023-05-23T05:06:04;22.30;95.00
15690;DHT22;7945;48.816;11.506;2023-05-23T05:08:31;22.20;95.00
15690;DHT22;7945;48.816;11.506;2023-05-23T05:10:57;22.40;95.00
15690;DHT22;7945;48.816;11.506;2023-05-23T05:13:25;22.90;94.40
15690;DHT22;7945;48.816;11.506;2023-05-23T05:15:52;23.50;93.70
15690;DHT22;7945;48.816;11.506;2023-05-23T05:18:19;24.10;93.00
15690;DHT22;7945;48.816;11.506;2023-05-23T05:20:46;24.60;92.30
15690;DHT22;7945;48.816;11.506;2023-05-23T05:23:12;25.10;91.70
15690;DHT22;7945;48.816;11.506;2023-05-23T05:25:39;25.60;91.20
15690;DHT22;7945;48.816;11.506;2023-05-23T05:28:06;26.00;90.60
15690;DHT22;7945;48.816;11.506;2023-05-23T05:30:34;26.30;90.20
15690;DHT22;7945;48.816;11.506;2023-05-23T05:33:02;26.60;89.40
15690;DHT22;7945;48.816;11.506;2023-05-23T05:35:30;26.90;88.50
15690;DHT22;7945;48.816;11.506;2023-05-23T05:37:57;27.00;87.40
15690;DHT22;7945;48.816;11.506;2023-05-23T05:40:23;27.30;86.70
15690;DHT22;7945;48.816;11.506;2023-05-23T05:42:50;27.60;86.00
15690;DHT22;7945;48.816;11.506;2023-05-23T05:45:17;27.60;85.40
15690;DHT22;7945;48.816;11.506;2023-05-23T05:47:45;27.70;84.80
15690;DHT22;7945;48.816;11.506;2023-05-23T05:50:12;27.80;84.10
15690;DHT22;7945;48.816;11.506;2023-05-23T05:52:39;27.80;84.30
15690;DHT22;7945;48.816;11.506;2023-05-23T05:55:07;27.80;83.80
15690;DHT22;7945;48.816;11.506;2023-05-23T05:57:35;27.70;83.70
15690;DHT22;7945;48.816;11.506;2023-05-23T06:00:04;27.60;84.00
15690;DHT22;7945;48.816;11.506;2023-05-23T06:02:36;27.20;84.30
15690;DHT22;7945;48.816;11.506;2023-05-23T06:05:05;26.80;85.10
15690;DHT22;7945;48.816;11.506;2023-05-23T06:07:32;26.50;85.70
15690;DHT22;7945;48.816;11.506;2023-05-23T06:10:00;26.30;86.90
15690;DHT22;7945;48.816;11.506;2023-05-23T06:15:22;25.90;87.30
15690;DHT22;7945;48.816;11.506;2023-05-23T06:17:49;25.70;87.70
15690;DHT22;7945;48.816;11.506;2023-05-23T06:20:16;25.20;87.90
15690;DHT22;7945;48.816;11.506;2023-05-23T06:22:43;24.50;88.90
15690;DHT22;7945;48.816;11.506;2023-05-23T06:25:10;24.10;90.00
15690;DHT22;7945;48.816;11.506;2023-05-23T06:27:36;23.80;90.40
15690;DHT22;7945;48.816;11.506;2023-05-23T06:30:04;23.40;90.90
15690;DHT22;7945;48.816;11.506;2023-05-23T06:32:32;23.10;91.40
15690;DHT22;7945;48.816;11.506;2023-05-23T06:35:00;22.90;91.70
15690;DHT22;7945;48.816;11.506;2023-05-23T06:37:26;22.70;92.30
15690;DHT22;7945;48.816;11.506;2023-05-23T06:39:53;22.60;92.20
15690;DHT22;7945;48.816;11.506;2023-05-23T06:42:20;22.60;92.30
15690;DHT22;7945;48.816;11.506;2023-05-23T06:44:47;22.50;92.50
15690;DHT22;7945;48.816;11.506;2023-05-23T06:47:13;22.40;92.60
15690;DHT22;7945;48.816;11.506;2023-05-23T06:49:41;22.30;92.80
15690;DHT22;7945;48.816;11.506;2023-05-23T06:52:08;22.30;92.90
15690;DHT22;7945;48.816;11.506;2023-05-23T06:54:35;22.20;93.10
15690;DHT22;7945;48.816;11.506;2023-05-23T06:57:02;22.00;93.20
15690;DHT22;7945;48.816;11.506;2023-05-23T06:59:29;22.00;93.50
15690;DHT22;7945;48.816;11.506;2023-05-23T07:01:56;22.00;93.70
15690;DHT22;7945;48.816;11.506;2023-05-23T07:04:23;22.00;93.70
15690;DHT22;7945;48.816;11.506;2023-05-23T07:06:52;22.00;93.80
15690;DHT22;7945;48.816;11.506;2023-05-23T07:09:19;22.00;93.90
15690;DHT22;7945;48.816;11.506;2023-05-23T07:11:46;21.90;94.00
15690;DHT22;7945;48.816;11.506;2023-05-23T07:14:12;21.80;94.10
15690;DHT22;7945;48.816;11.506;2023-05-23T07:16:39;21.80;94.20
15690;DHT22;7945;48.816;11.506;2023-05-23T07:19:06;21.80;94.30
15690;DHT22;7945;48.816;11.506;2023-05-23T07:21:33;21.80;94.40
15690;DHT22;7945;48.816;11.506;2023-05-23T07:24:01;21.80;94.50
15690;DHT22;7945;48.816;11.506;2023-05-23T07:26:28;21.80;94.50
15690;DHT22;7945;48.816;11.506;2023-05-23T07:28:55;21.80;94.60
15690;DHT22;7945;48.816;11.506;2023-05-23T07:31:22;21.90;94.60
15690;DHT22;7945;48.816;11.506;2023-05-23T07:33:48;22.00;94.40
15690;DHT22;7945;48.816;11.506;2023-05-23T07:36:15;22.10;94.30
15690;DHT22;7945;48.816;11.506;2023-05-23T07:38:42;22.10;94.20
15690;DHT22;7945;48.816;11.506;2023-05-23T07:41:10;22.10;94.20
15690;DHT22;7945;48.816;11.506;2023-05-23T07:43:37;22.00;94.20
15690;DHT22;7945;48.816;11.506;2023-05-23T07:46:04;22.10;94.20
15690;DHT22;7945;48.816;11.506;2023-05-23T07:48:30;22.20;94.10
15690;DHT22;7945;48.816;11.506;2023-05-23T07:50:57;22.30;93.90
15690;DHT22;7945;48.816;11.506;2023-05-23T07:53:24;22.40;93.80
15690;DHT22;7945;48.816;11.506;2023-05-23T07:55:51;22.50;93.70
15690;DHT22;7945;48.816;11.506;2023-05-23T07:58:19;22.60;93.60
15690;DHT22;7945;48.816;11.506;2023-05-23T08:00:47;22.70;93.60
15690;DHT22;7945;48.816;11.506;2023-05-23T08:03:15;22.80;93.60
15690;DHT22;7945;48.816;11.506;2023-05-23T08:05:43;22.90;93.50
15690;DHT22;7945;48.816;11.506;2023-05-23T08:08:10;22.90;93.40
15690;DHT22;7945;48.816;11.506;2023-05-23T08:10:36;22.90;93.40
15690;DHT22;7945;48.816;11.506;2023-05-23T08:13:04;22.80;93.40
15690;DHT22;7945;48.816;11.506;2023-05-23T08:15:32;22.80;93.50
15690;DHT22;7945;48.816;11.506;2023-05-23T08:17:59;22.80;93.60
15690;DHT22;7945;48.816;11.506;2023-05-23T08:20:26;22.90;93.50
15690;DHT22;7945;48.816;11.506;2023-05-23T08:22:57;22.90;93.60
15690;DHT22;7945;48.816;11.506;2023-05-23T08:25:24;23.00;93.30
15690;DHT22;7945;48.816;11.506;2023-05-23T08:27:54;23.00;93.30
15690;DHT22;7945;48.816;11.506;2023-05-23T08:30:21;22.90;93.30
15690;DHT22;7945;48.816;11.506;2023-05-23T08:32:51;22.90;93.40
15690;DHT22;7945;48.816;11.506;2023-05-23T08:35:18;22.90;93.50
15690;DHT22;7945;48.816;11.506;2023-05-23T08:37:45;23.00;93.60
15690;DHT22;7945;48.816;11.506;2023-05-23T08:40:13;23.00;93.50
15690;DHT22;7945;48.816;11.506;2023-05-23T08:42:44;23.20;93.40
15690;DHT22;7945;48.816;11.506;2023-05-23T08:45:11;23.20;93.30
15690;DHT22;7945;48.816;11.506;2023-05-23T08:47:40;23.20;93.60
15690;DHT22;7945;48.816;11.506;2023-05-23T08:50:11;23.10;93.30
15690;DHT22;7945;48.816;11.506;2023-05-23T08:52:42;23.10;93.20
15690;DHT22;7945;48.816;11.506;2023-05-23T08:55:10;23.10;93.10
15690;DHT22;7945;48.816;11.506;2023-05-23T08:57:37;23.20;93.10
15690;DHT22;7945;48.816;11.506;2023-05-23T09:00:09;23.30;92.90
15690;DHT22;7945;48.816;11.506;2023-05-23T09:02:39;23.30;92.70
15690;DHT22;7945;48.816;11.506;2023-05-23T09:05:06;23.30;92.80
15690;DHT22;7945;48.816;11.506;2023-05-23T09:07:36;23.20;92.90
15690;DHT22;7945;48.816;11.506;2023-05-23T09:10:04;23.30;92.70
15690;DHT22;7945;48.816;11.506;2023-05-23T09:12:32;23.40;92.50
15690;DHT22;7945;48.816;11.506;2023-05-23T09:15:01;23.40;92.30
15690;DHT22;7945;48.816;11.506;2023-05-23T09:17:28;23.40;92.70
15690;DHT22;7945;48.816;11.506;2023-05-23T09:19:56;23.30;92.40
15690;DHT22;7945;48.816;11.506;2023-05-23T09:22:24;23.20;92.50
15690;DHT22;7945;48.816;11.506;2023-05-23T09:24:53;23.10;92.60
15690;DHT22;7945;48.816;11.506;2023-05-23T09:27:21;23.10;92.70
15690;DHT22;7945;48.816;11.506;2023-05-23T09:29:48;23.10;92.60
15690;DHT22;7945;48.816;11.506;2023-05-23T09:32:16;23.00;92.70
15690;DHT22;7945;48.816;11.506;2023-05-23T09:34:54;23.00;92.90
15690;DHT22;7945;48.816;11.506;2023-05-23T09:37:21;23.00;92.80
15690;DHT22;7945;48.816;11.506;2023-05-23T09:39:49;22.90;92.80
15690;DHT22;7945;48.816;11.506;2023-05-23T09:42:21;22.90;92.80
15690;DHT22;7945;48.816;11.506;2023-05-23T09:44:49;22.90;92.90
15690;DHT22;7945;48.816;11.506;2023-05-23T09:47:16;22.90;92.90
15690;DHT22;7945;48.816;11.506;2023-05-23T09:49:44;22.90;92.80
15690;DHT22;7945;48.816;11.506;2023-05-23T09:52:11;22.90;92.70
15690;DHT22;7945;48.816;11.506;2023-05-23T09:54:38;22.80;92.90
15690;DHT22;7945;48.816;11.506;2023-05-23T09:57:08;22.80;92.90
15690;DHT22;7945;48.816;11.506;2023-05-23T09:59:39;22.80;92.70
15690;DHT22;7945;48.816;11.506;2023-05-23T10:02:07;22.70;92.80
15690;DHT22;7945;48.816;11.506;2023-05-23T10:04:37;22.60;92.90
15690;DHT22;7945;48.816;11.506;2023-05-23T10:07:11;22.80;92.90
15690;DHT22;7945;48.816;11.506;2023-05-23T10:09:41;22.90;92.90
15690;DHT22;7945;48.816;11.506;2023-05-23T10:12:38;23.00;92.80
15690;DHT22;7945;48.816;11.506;2023-05-23T10:15:12;23.10;92.30
15690;DHT22;7945;48.816;11.506;2023-05-23T10:20:31;23.00;92.10
15690;DHT22;7945;48.816;11.506;2023-05-23T10:22:59;22.90;92.00
15690;DHT22;7945;48.816;11.506;2023-05-23T10:25:26;23.00;92.00
15690;DHT22;7945;48.816;11.506;2023-05-23T10:27:55;23.20;91.70
15690;DHT22;7945;48.816;11.506;2023-05-23T10:30:25;23.40;91.40
15690;DHT22;7945;48.816;11.506;2023-05-23T10:32:53;23.50;91.30
15690;DHT22;7945;48.816;11.506;2023-05-23T10:35:24;23.40;91.50
15690;DHT22;7945;48.816;11.506;2023-05-23T10:38:01;23.50;91.80
15690;DHT22;7945;48.816;11.506;2023-05-23T10:40:36;23.50;91.80
15690;DHT22;7945;48.816;11.506;2023-05-23T10:43:15;23.60;91.70
15690;DHT22;7945;48.816;11.506;2023-05-23T10:45:46;23.50;91.60
15690;DHT22;7945;48.816;11.506;2023-05-23T10:48:22;23.60;91.60
15690;DHT22;7945;48.816;11.506;2023-05-23T10:51:05;23.50;90.70
15690;DHT22;7945;48.816;11.506;2023-05-23T10:53:34;23.40;90.20
15690;DHT22;7945;48.816;11.506;2023-05-23T10:56:04;23.40;90.20
15690;DHT22;7945;48.816;11.506;2023-05-23T10:58:32;23.40;90.00
15690;DHT22;7945;48.816;11.506;2023-05-23T11:01:03;23.40;90.10
15690;DHT22;7945;48.816;11.506;2023-05-23T11:03:32;23.50;90.20
15690;DHT22;7945;48.816;11.506;2023-05-23T11:06:00;23.40;90.10
15690;DHT22;7945;48.816;11.506;2023-05-23T11:08:27;23.30;90.50
15690;DHT22;7945;48.816;11.506;2023-05-23T11:10:57;23.30;90.50
15690;DHT22;7945;48.816;11.506;2023-05-23T11:13:25;23.30;90.60
15690;DHT22;7945;48.816;11.506;2023-05-23T11:15:52;23.60;90.50
15690;DHT22;7945;48.816;11.506;2023-05-23T11:18:22;23.90;90.20
15690;DHT22;7945;48.816;11.506;2023-05-23T11:20:51;24.10;88.70
15690;DHT22;7945;48.816;11.506;2023-05-23T11:23:19;24.20;88.20
15690;DHT22;7945;48.816;11.506;2023-05-23T11:25:48;24.30;88.10
15690;DHT22;7945;48.816;11.506;2023-05-23T11:28:15;24.30;87.60
15690;DHT22;7945;48.816;11.506;2023-05-23T11:30:42;24.20;88.10
15690;DHT22;7945;48.816;11.506;2023-05-23T11:33:10;24.20;88.30
15690;DHT22;7945;48.816;11.506;2023-05-23T11:35:41;24.20;87.70
15690;DHT22;7945;48.816;11.506;2023-05-23T11:38:08;24.10;87.70
15690;DHT22;7945;48.816;11.506;2023-05-23T11:40:37;24.20;87.90
15690;DHT22;7945;48.816;11.506;2023-05-23T11:43:06;24.30;87.80
15690;DHT22;7945;48.816;11.506;2023-05-23T11:45:34;24.40;87.80
15690;DHT22;7945;48.816;11.506;2023-05-23T11:48:05;24.40;87.90
15690;DHT22;7945;48.816;11.506;2023-05-23T11:50:32;24.30;87.50
15690;DHT22;7945;48.816;11.506;2023-05-23T11:53:00;24.30;87.80
15690;DHT22;7945;48.816;11.506;2023-05-23T11:55:27;24.30;87.50
15690;DHT22;7945;48.816;11.506;2023-05-23T11:57:55;24.40;87.60
15690;DHT22;7945;48.816;11.506;2023-05-23T12:00:22;24.30;87.40
15690;DHT22;7945;48.816;11.506;2023-05-23T12:02:49;24.30;87.70
15690;DHT22;7945;48.816;11.506;2023-05-23T12:05:16;24.20;87.80
15690;DHT22;7945;48.816;11.506;2023-05-23T12:07:44;24.10;87.70
15690;DHT22;7945;48.816;11.506;2023-05-23T12:10:13;24.10;87.20
15690;DHT22;7945;48.816;11.506;2023-05-23T12:12:40;24.00;87.00
15690;DHT22;7945;48.816;11.506;2023-05-23T12:15:08;24.00;87.10
15690;DHT22;7945;48.816;11.506;2023-05-23T12:17:36;23.90;87.40
15690;DHT22;7945;48.816;11.506;2023-05-23T12:20:04;23.80;87.70
15690;DHT22;7945;48.816;11.506;2023-05-23T12:22:31;23.70;87.20
15690;DHT22;7945;48.816;11.506;2023-05-23T12:24:58;23.70;86.70
15690;DHT22;7945;48.816;11.506;2023-05-23T12:27:27;23.70;86.00
15690;DHT22;7945;48.816;11.506;2023-05-23T12:30:05;23.80;85.60
15690;DHT22;7945;48.816;11.506;2023-05-23T12:32:33;23.90;85.80
15690;DHT22;7945;48.816;11.506;2023-05-23T12:35:01;24.00;86.10
15690;DHT22;7945;48.816;11.506;2023-05-23T12:37:29;24.00;85.50
15690;DHT22;7945;48.816;11.506;2023-05-23T12:39:56;23.90;85.50
15690;DHT22;7945;48.816;11.506;2023-05-23T12:42:23;23.70;85.60
15690;DHT22;7945;48.816;11.506;2023-05-23T12:44:54;23.70;85.70
15690;DHT22;7945;48.816;11.506;2023-05-23T12:47:21;23.70;85.90
15690;DHT22;7945;48.816;11.506;2023-05-23T12:49:47;23.80;85.50
15690;DHT22;7945;48.816;11.506;2023-05-23T12:52:14;23.60;84.70
15690;DHT22;7945;48.816;11.506;2023-05-23T12:54:41;23.60;84.40
15690;DHT22;7945;48.816;11.506;2023-05-23T12:57:08;23.50;85.10
15690;DHT22;7945;48.816;11.506;2023-05-23T12:59:35;23.40;84.90
15690;DHT22;7945;48.816;11.506;2023-05-23T13:02:03;23.50;84.80
15690;DHT22;7945;48.816;11.506;2023-05-23T13:04:30;23.50;85.20
15690;DHT22;7945;48.816;11.506;2023-05-23T13:06:57;23.60;84.90
15690;DHT22;7945;48.816;11.506;2023-05-23T13:09:24;23.60;84.10
15690;DHT22;7945;48.816;11.506;2023-05-23T13:11:50;23.60;83.70
15690;DHT22;7945;48.816;11.506;2023-05-23T13:14:17;23.50;83.80
15690;DHT22;7945;48.816;11.506;2023-05-23T13:16:44;23.40;84.10
15690;DHT22;7945;48.816;11.506;2023-05-23T13:19:12;23.40;84.20
15690;DHT22;7945;48.816;11.506;2023-05-23T13:21:39;23.60;84.00
15690;DHT22;7945;48.816;11.506;2023-05-23T13:24:06;23.60;83.30
15690;DHT22;7945;48.816;11.506;2023-05-23T13:26:34;23.60;82.50
15690;DHT22;7945;48.816;11.506;2023-05-23T13:29:00;23.60;82.80
15690;DHT22;7945;48.816;11.506;2023-05-23T13:31:27;23.60;82.40
15690;DHT22;7945;48.816;11.506;2023-05-23T13:33:54;23.60;82.20
15690;DHT22;7945;48.816;11.506;2023-05-23T13:36:22;23.60;82.30
15690;DHT22;7945;48.816;11.506;2023-05-23T13:38:49;23.60;82.20
15690;DHT22;7945;48.816;11.506;2023-05-23T13:41:16;23.80;82.30
15690;DHT22;7945;48.816;11.506;2023-05-23T13:43:43;23.70;81.00
15690;DHT22;7945;48.816;11.506;2023-05-23T13:46:11;23.90;81.00
15690;DHT22;7945;48.816;11.506;2023-05-23T13:48:38;24.00;81.00
15690;DHT22;7945;48.816;11.506;2023-05-23T13:51:05;23.90;80.00
15690;DHT22;7945;48.816;11.506;2023-05-23T13:53:33;23.80;80.70
15690;DHT22;7945;48.816;11.506;2023-05-23T13:56:00;23.90;80.70
15690;DHT22;7945;48.816;11.506;2023-05-23T13:58:27;23.90;80.40
15690;DHT22;7945;48.816;11.506;2023-05-23T14:00:54;24.00;81.30
15690;DHT22;7945;48.816;11.506;2023-05-23T14:03:21;23.90;80.40
15690;DHT22;7945;48.816;11.506;2023-05-23T14:05:49;23.90;80.10
15690;DHT22;7945;48.816;11.506;2023-05-23T14:08:15;23.80;80.00
15690;DHT22;7945;48.816;11.506;2023-05-23T14:10:44;23.80;80.10
15690;DHT22;7945;48.816;11.506;2023-05-23T14:13:10;23.80;79.70
15690;DHT22;7945;48.816;11.506;2023-05-23T14:15:37;23.80;80.00
15690;DHT22;7945;48.816;11.506;2023-05-23T14:18:06;23.90;79.60
15690;DHT22;7945;48.816;11.506;2023-05-23T14:20:33;23.90;79.40
15690;DHT22;7945;48.816;11.506;2023-05-23T14:23:00;23.90;79.60
15690;DHT22;7945;48.816;11.506;2023-05-23T14:25:27;23.70;79.40
15690;DHT22;7945;48.816;11.506;2023-05-23T14:27:56;23.60;80.00
15690;DHT22;7945;48.816;11.506;2023-05-23T14:30:23;23.60;80.40
15690;DHT22;7945;48.816;11.506;2023-05-23T14:32:49;23.70;80.70
15690;DHT22;7945;48.816;11.506;2023-05-23T14:35:16;23.40;81.00
15690;DHT22;7945;48.816;11.506;2023-05-23T14:37:44;23.30;81.40
15690;DHT22;7945;48.816;11.506;2023-05-23T14:40:11;23.20;81.50
15690;DHT22;7945;48.816;11.506;2023-05-23T14:42:38;23.20;81.10
15690;DHT22;7945;48.816;11.506;2023-05-23T14:45:07;23.20;81.30
15690;DHT22;7945;48.816;11.506;2023-05-23T14:47:34;23.30;82.30
15690;DHT22;7945;48.816;11.506;2023-05-23T14:50:02;23.50;81.60
15690;DHT22;7945;48.816;11.506;2023-05-23T14:52:29;23.50;81.00
15690;DHT22;7945;48.816;11.506;2023-05-23T14:54:56;23.50;80.80
15690;DHT22;7945;48.816;11.506;2023-05-23T14:57:23;23.40;80.80
15690;DHT22;7945;48.816;11.506;2023-05-23T14:59:51;23.40;81.10
15690;DHT22;7945;48.816;11.506;2023-05-23T15:02:19;23.30;81.20
15690;DHT22;7945;48.816;11.506;2023-05-23T15:04:47;23.20;80.30
15690;DHT22;7945;48.816;11.506;2023-05-23T15:07:14;23.10;80.30
15690;DHT22;7945;48.816;11.506;2023-05-23T15:09:43;23.00;79.80
15690;DHT22;7945;48.816;11.506;2023-05-23T15:12:10;23.00;80.20
15690;DHT22;7945;48.816;11.506;2023-05-23T15:14:38;23.10;80.00
15690;DHT22;7945;48.816;11.506;2023-05-23T15:17:05;23.20;79.80
15690;DHT22;7945;48.816;11.506;2023-05-23T15:19:35;23.20;79.90
15690;DHT22;7945;48.816;11.506;2023-05-23T15:22:04;23.10;79.50
15690;DHT22;7945;48.816;11.506;2023-05-23T15:24:31;23.00;79.90
15690;DHT22;7945;48.816;11.506;2023-05-23T15:26:58;22.80;80.60
15690;DHT22;7945;48.816;11.506;2023-05-23T15:29:26;22.70;81.20
15690;DHT22;7945;48.816;11.506;2023-05-23T15:31:53;22.80;81.20
15690;DHT22;7945;48.816;11.506;2023-05-23T15:34:21;22.90;80.60
15690;DHT22;7945;48.816;11.506;2023-05-23T15:36:50;23.00;80.20
15690;DHT22;7945;48.816;11.506;2023-05-23T15:39:17;23.00;80.10